METAR és
SPECI
METAR LHBP 222300Z 30016KT 9999 SCT017 BKN030 07/05 Q1003 NOSIG=
METAR LHBP 222230Z 29013KT 9999 FEW018 SCT032 BKN045 07/05 Q1004 NOSIG=
METAR LHBP 222200Z 30016KT 9999 FEW020 BKN045 07/05 Q1004 NOSIG=
METAR LHBP 222130Z 30015KT 9999 SCT017 BKN043 07/05 Q1004 NOSIG=
METAR LHBP 222100Z 29015KT 9999 FEW017 SCT027 BKN041 08/05 Q1004 NOSIG=
METAR LHBP 222030Z 29016KT 9999 FEW017 SCT024 BKN040 07/05 Q1004 NOSIG=
TAF
TAF LHBP 221700Z 2218/2318 30018KT 9999 SCT025 SCT045 BKN060 BECMG 2219/2222 29012KT BECMG 2223/2302 31006KT BECMG 2306/2309 01008KT TEMPO 2307/2318 -RA -SHRA BKN020 OVC045 TEMPO 2313/2318 36014KT=
GAMET
Nincs érvényes távirat! 
FAHU41 LHBM 221100
LHCC GAMET VALID 221200/221800 LHBP-
LHCC BUDAPEST FIR BLW FL100
SECN I
SFC VIS: 12/14 2000-5000 M RA BR NE OF LINE N4714 E02151 -
N4810 E02003
SIG CLD: 12/14 BKN 500-1000/1300-2300 FT AGL BTN E01945 AND
E02145
14/18 BKN 500-1000/1300-2300 FT AGL E OF LINE N4615
E02106 - N4810 E02003
14/18 ISOL TCU 1500-2600/XXX FT AGL W OF E01725
ICE: MOD 6300/XXX FT AMSL BTN E01700 AND E02035
TURB: MOD 3300/10000 FT AMSL BTN E01810 E02020
MOD SFC/2000 FT AMSL W OF E01930
SIGMETS APPLICABLE: NIL=
AIRMET
Nincs érvényes távirat! 
WAHU41 LHBM 160545
LHCC AIRMET 01 VALID 160545/160800 LHBP-
LHCC BUDAPEST FIR BKN/OVC CLD 200-500/1000 FT AGL WKN=
SIGMET
Nincs érvényes távirat! 
WSHU31 LHBM 220500
LHCC SIGMET 03 VALID 220500/220700 LHBP-
LHCC BUDAPEST FIR EMBD TS OBS AND FCST S OF N4700
TOP FL280-310 MOV ENE WKN=
SIGMET
Vulkáni hamufelhő
Not valid product! 
WVHU31 LHBM 271515 CCA
LHCC SIGMET 03 VALID 271515/271800 LHBP-
LHCC BUDAPEST FIR EXERCISE VOLCEX12/01
CNL VA SIGMET 02 271200/271800
EXERCISE EXERCISE EXERCISE VOLCEX12/01=